Airfield :
LOGIN :

Register | Disclaimer

   EN    FR    IT 

 










Legend :    VFR   Marginal VFR   IFR   Intensive IFR   Very Intensive IFR
Visi :
Ceiling :
>= 8 km
>= 3000ft
5 to 8 km
1000 to 3000 ft
1500m to 5 km
500 to 1000 ft
800 to 1500m
200 to 500 ft
< 800m
< 200 ft
Symbols :   Thunderstorms  Fog  Heavy snow  Heavy precipitations  Wind > 20 kt
SIGMETs :     Misc.  Thunderstorms  Icing  Turbulence  Mountain Waves  Volcanic Ashes







- Airport Elevation : 267 ft


EGDR - Culdrose Navy

CURRENT METAR :
  • 251150Z 01019G29KT 9999 FEW025 BKN030 09/M02 Q1017 BLU TEMPO SCT024TCU WHT

EXPIRED METARs :
  • 251050Z 01019G29KT 9999 VCSH FEW024 BKN028 09/M01 Q1017 BLU NOSIG
  • 250950Z 01018G30KT 9999 VCSH FEW012 SCT028 08/M00 Q1017 RESHGS BLU NOSIG

TAF TAF EGDR
Valid from the 25 at 12:00 until the 25 at 21:00 UTC


251044Z 2512/2521 36020G30KT 9999 SCT028
PROB30
TEMPO 2515/2521 5000 SHRAGS BKN020CB
BECMG 2517/2521 01015KT
No reported NOTAMs for that airfield.



MET'MAP, your aeronautical weather chart ! - Copyright ORBIFLY December 2007 - Disclaimer

ORBIFLY MET'MAP TEAM :

Programming & Development : Alexandra Zaïnal
Concept & Development : Baudouin d'Aumeries
Co-Development & Prog : Marc-Olivier Méhu
Technical & hardware support : Manuel Goepfert

Contact : metmap@orbifly.com




SOURCES & CREDITS :

   NOAA